createdAt,value
2019-03-10T00:06:38.873Z,98359.72
2019-03-10T00:09:28.882Z,98362.14
2019-03-10T00:12:11.452Z,98365.27
2019-03-10T00:20:28.621Z,98382.59
2019-03-10T00:26:02.285Z,98393.79
2019-03-10T00:32:02.381Z,98405.63
2019-03-10T00:40:58.216Z,98405.72
2019-03-10T00:44:07.025Z,98411.92
2019-03-10T00:47:15.573Z,98416.22
2019-03-10T00:50:26.177Z,98419.16
2019-03-10T01:08:33.777Z,98430.03
2019-03-10T01:11:28.336Z,98430.39
2019-03-10T01:23:38.256Z,98466.66
2019-03-10T01:41:54.927Z,98483.05
2019-03-10T01:53:48.603Z,98501.03
2019-03-10T02:08:01.328Z,98523.47
2019-03-10T02:16:38.820Z,98535.18
2019-03-10T02:19:29.782Z,98546.49
2019-03-10T02:31:23.899Z,98548.22
2019-03-10T02:37:06.858Z,98538.23
2019-03-10T02:40:10.011Z,98543.72
2019-03-10T02:48:13.013Z,98553.03
2019-03-10T02:50:49.642Z,98554.63
2019-03-10T03:07:07.554Z,98573.31
2019-03-10T03:10:01.325Z,98574.25
2019-03-10T03:12:54.438Z,98579.22
2019-03-10T03:15:47.162Z,98581.98
2019-03-10T03:18:42.857Z,98586.78
2019-03-10T03:26:45.675Z,98594.81
2019-03-10T03:32:43.492Z,98586.41
2019-03-10T03:35:52.031Z,98586.58
2019-03-10T03:38:43.994Z,98598.77
2019-03-10T03:41:37.073Z,98604.33
2019-03-10T03:50:06.809Z,98611.38
2019-03-10T03:52:36.924Z,98608.37
2019-03-10T03:55:07.042Z,98614.50
2019-03-10T03:57:37.169Z,98615.56
2019-03-10T04:00:29.446Z,98629.70
2019-03-10T04:06:06.419Z,98636.50
2019-03-10T04:12:01.793Z,98642.72
2019-03-10T04:14:56.788Z,98648.75
2019-03-10T04:17:43.092Z,98656.11
2019-03-10T04:20:37.686Z,98666.10
2019-03-10T04:23:13.715Z,98667.80
2019-03-10T04:25:43.813Z,98655.92
2019-03-10T04:28:13.926Z,98669.13
2019-03-10T04:30:44.121Z,98675.73
2019-03-10T04:33:14.435Z,98682.11
2019-03-10T04:35:44.601Z,98685.88
2019-03-10T04:38:14.735Z,98683.52
2019-03-10T04:40:44.834Z,98686.26
2019-03-10T04:43:14.963Z,98693.42
2019-03-10T04:45:45.249Z,98693.24
2019-03-10T04:48:30.635Z,98699.37
2019-03-10T04:54:18.907Z,98699.27
2019-03-10T04:56:52.588Z,98706.80
2019-03-10T05:02:07.968Z,98717.47
2019-03-10T05:04:44.913Z,98714.45
2019-03-10T05:07:21.163Z,98711.34
2019-03-10T05:18:51.455Z,98725.03
2019-03-10T05:21:45.709Z,98720.42
2019-03-10T05:24:42.984Z,98722.77
2019-03-10T05:33:15.607Z,98742.55
2019-03-10T05:41:28.272Z,98752.64
2019-03-10T05:43:58.918Z,98753.92
2019-03-10T05:46:48.095Z,98762.61
2019-03-10T05:49:18.326Z,98767.67
2019-03-10T05:51:48.556Z,98765.42
2019-03-10T05:54:18.900Z,98770.49
2019-03-10T05:57:01.153Z,98769.76
2019-03-10T05:59:34.002Z,98771.37
2019-03-10T06:08:04.183Z,98779.34
2019-03-10T06:10:54.925Z,98792.18
2019-03-10T06:13:25.009Z,98791.98
2019-03-10T06:15:55.134Z,98800.59
2019-03-10T06:18:25.236Z,98803.26
2019-03-10T06:20:55.336Z,98803.75
2019-03-10T06:23:25.454Z,98809.27
2019-03-10T06:25:55.579Z,98812.29
2019-03-10T06:28:25.674Z,98811.80
2019-03-10T06:30:56.500Z,98821.97
2019-03-10T06:51:35.316Z,98822.73
2019-03-10T06:54:31.849Z,98817.58
2019-03-10T07:03:07.099Z,98819.03
2019-03-10T07:05:41.271Z,98815.40
2019-03-10T07:10:58.095Z,98818.84
2019-03-10T07:13:32.698Z,98817.21
2019-03-10T07:16:05.443Z,98812.50
2019-03-10T07:18:49.192Z,98815.82
2019-03-10T07:21:46.707Z,98815.02
2019-03-10T07:24:30.423Z,98812.94
2019-03-10T07:27:12.130Z,98815.70
2019-03-10T07:43:04.994Z,98832.01
2019-03-10T07:46:16.202Z,98836.55
2019-03-10T07:49:21.415Z,98844.20
2019-03-10T08:00:51.083Z,98864.81
2019-03-10T08:12:42.405Z,98870.69
2019-03-10T08:20:49.959Z,98879.94
2019-03-10T08:23:42.682Z,98882.30
2019-03-10T08:26:54.206Z,98883.03
2019-03-10T08:30:04.064Z,98882.09
2019-03-10T08:32:53.233Z,98889.77
2019-03-10T08:38:31.257Z,98885.87
2019-03-10T08:41:20.513Z,98881.23
2019-03-10T08:56:15.732Z,98895.03
2019-03-10T08:59:08.047Z,98901.77
2019-03-10T09:05:00.816Z,98898.90
2019-03-10T09:08:11.049Z,98902.48
2019-03-10T09:11:02.159Z,98911.08
2019-03-10T09:14:10.714Z,98912.31
2019-03-10T09:17:01.568Z,98919.71
2019-03-10T09:20:10.017Z,98913.29
2019-03-10T09:41:40.800Z,98937.42
2019-03-10T09:47:35.242Z,98934.23
2019-03-10T09:53:36.451Z,98924.44
2019-03-10T09:59:36.105Z,98928.59
2019-03-10T10:11:10.642Z,98933.69
2019-03-10T10:22:55.679Z,98932.38
2019-03-10T10:32:03.935Z,98931.06
2019-03-10T10:35:12.134Z,98934.06
2019-03-10T10:37:52.812Z,98893.24
2019-03-10T10:40:41.863Z,98927.06
2019-03-10T10:46:41.880Z,98915.67
2019-03-10T10:52:44.993Z,98911.93
2019-03-10T10:55:34.048Z,98917.02
2019-03-10T11:04:21.039Z,98908.84
2019-03-10T11:13:18.744Z,98913.48
2019-03-10T11:16:09.850Z,98897.56
2019-03-10T11:21:28.206Z,98895.53
2019-03-10T11:24:17.274Z,98905.92
2019-03-10T11:27:06.340Z,98897.28
2019-03-10T11:29:55.380Z,98906.11
2019-03-10T11:32:44.450Z,98910.16
2019-03-10T11:38:48.116Z,98916.00
2019-03-10T11:41:38.105Z,98906.16
2019-03-10T11:44:32.683Z,98903.19
2019-03-10T11:47:27.907Z,98895.67
2019-03-10T11:50:08.910Z,98562.76
2019-03-10T11:52:47.046Z,98901.47
2019-03-10T11:55:36.359Z,98909.36
2019-03-10T12:01:06.172Z,98896.47
2019-03-10T12:03:55.263Z,98905.63
2019-03-10T12:06:44.428Z,98902.58
2019-03-10T12:09:33.546Z,98898.22
2019-03-10T12:12:04.203Z,98898.36
2019-03-10T12:14:53.628Z,98890.14
2019-03-10T12:17:23.751Z,98894.77
2019-03-10T12:19:53.873Z,98886.83
2019-03-10T12:22:23.990Z,98893.68
2019-03-10T12:28:14.460Z,98887.06
2019-03-10T12:30:44.581Z,98883.27
2019-03-10T12:33:14.747Z,98874.20
2019-03-10T12:35:44.841Z,98875.23
2019-03-10T12:38:14.983Z,98883.33
2019-03-10T12:40:45.102Z,98885.55
2019-03-10T12:43:15.260Z,98880.17
2019-03-10T12:45:45.434Z,98879.03
2019-03-10T12:48:15.564Z,98882.30
2019-03-10T12:50:45.745Z,98885.80
2019-03-10T12:53:15.951Z,98875.92
2019-03-10T12:55:46.085Z,98884.97
2019-03-10T13:01:18.916Z,98883.39
2019-03-10T13:03:58.347Z,98885.01
2019-03-10T13:06:51.455Z,98882.35
2019-03-10T13:09:21.593Z,98884.61
2019-03-10T13:11:51.739Z,98885.57
2019-03-10T13:14:21.968Z,98888.09
2019-03-10T13:16:52.101Z,98872.92
2019-03-10T13:19:22.257Z,98881.97
2019-03-10T13:21:52.379Z,98875.67
2019-03-10T13:24:22.495Z,98879.19
2019-03-10T13:26:52.700Z,98874.73
2019-03-10T13:29:22.848Z,98872.09
2019-03-10T13:31:52.941Z,98798.47
2019-03-10T13:34:29.320Z,98870.00
2019-03-10T13:40:25.533Z,98872.19
2019-03-10T13:46:20.374Z,98869.03
2019-03-10T13:51:35.292Z,98868.92
2019-03-10T13:54:07.853Z,98872.41
2019-03-10T13:56:58.299Z,98869.76
2019-03-10T14:03:03.068Z,98867.00
2019-03-10T14:05:54.542Z,98867.33
2019-03-10T14:11:26.509Z,98860.41
2019-03-10T14:13:56.722Z,98871.55
2019-03-10T14:16:26.959Z,98863.95
2019-03-10T14:18:57.217Z,98864.70
2019-03-10T14:21:27.357Z,98867.70
2019-03-10T14:23:57.805Z,98863.53
2019-03-10T14:26:39.580Z,98864.38
2019-03-10T14:29:09.920Z,98863.14
2019-03-10T14:31:56.997Z,98860.34
2019-03-10T14:37:51.500Z,98849.52
2019-03-10T14:40:42.488Z,98859.44
2019-03-10T14:43:18.459Z,98863.91
2019-03-10T14:45:48.567Z,98862.38
2019-03-10T14:48:38.207Z,98860.73
2019-03-10T14:51:29.086Z,98863.53
2019-03-10T14:56:51.932Z,98874.02
2019-03-10T14:59:22.066Z,98874.98
2019-03-10T15:01:52.202Z,98859.57
2019-03-10T15:04:22.331Z,98877.86
2019-03-10T15:06:54.218Z,98876.02
2019-03-10T15:09:24.487Z,98879.30
2019-03-10T15:11:54.648Z,98877.97
2019-03-10T15:14:43.686Z,98879.30
2019-03-10T15:17:13.790Z,98874.25
2019-03-10T15:19:43.961Z,98873.53
2019-03-10T15:22:14.272Z,98876.83
2019-03-10T15:24:44.395Z,98873.63
2019-03-10T15:27:22.949Z,98869.34
2019-03-10T15:29:51.883Z,98867.14
2019-03-10T15:32:22.016Z,98865.26
2019-03-10T15:34:52.238Z,98868.39
2019-03-10T15:37:22.418Z,98863.72
2019-03-10T15:39:52.633Z,98867.33
2019-03-10T15:42:22.854Z,98866.99
2019-03-10T15:44:53.095Z,98865.34
2019-03-10T15:47:23.206Z,98873.94
2019-03-10T15:49:53.385Z,98872.19
2019-03-10T15:52:23.538Z,98867.64
2019-03-10T15:54:53.736Z,98870.59
2019-03-10T15:57:24.009Z,98874.21
2019-03-10T15:59:54.222Z,98888.33
2019-03-10T16:02:24.863Z,98877.82
2019-03-10T16:04:55.058Z,98879.02
2019-03-10T16:07:45.558Z,98884.06
2019-03-10T16:10:26.068Z,98881.20
2019-03-10T16:13:09.793Z,98882.48
2019-03-10T16:15:40.907Z,98883.52
2019-03-10T16:21:42.135Z,98886.08
2019-03-10T16:24:12.357Z,98886.45
2019-03-10T16:26:42.523Z,98893.39
2019-03-10T16:29:12.732Z,98900.11
2019-03-10T16:31:42.905Z,98900.50
2019-03-10T16:34:13.197Z,98896.67
2019-03-10T16:36:43.412Z,98914.00
2019-03-10T16:42:23.709Z,98916.31
2019-03-10T16:45:14.417Z,98926.34
2019-03-10T16:47:44.535Z,98926.66
2019-03-10T16:53:27.437Z,98934.13
2019-03-10T16:56:03.412Z,98935.64
2019-03-10T17:01:43.167Z,98943.23
2019-03-10T17:04:13.384Z,98941.91
2019-03-10T17:06:43.560Z,98940.50
2019-03-10T17:09:33.639Z,98936.33
2019-03-10T17:12:26.592Z,98943.63
2019-03-10T17:14:57.601Z,98942.03
2019-03-10T17:17:27.772Z,98947.39
2019-03-10T17:19:57.938Z,98947.39
2019-03-10T17:22:30.575Z,98956.66
2019-03-10T17:34:03.894Z,98955.38
2019-03-10T17:36:52.606Z,98961.60
2019-03-10T17:39:22.899Z,98960.54
2019-03-10T17:42:16.269Z,98963.75
2019-03-10T17:44:49.244Z,98963.80
2019-03-10T17:47:19.485Z,98968.42
2019-03-10T17:53:28.132Z,98964.06
2019-03-10T18:14:09.072Z,98968.19
2019-03-10T18:17:02.368Z,98967.84
2019-03-10T18:19:32.722Z,98972.83
2019-03-10T18:22:02.892Z,98969.05
2019-03-10T18:24:33.034Z,98967.52
2019-03-10T18:27:03.179Z,98968.34
2019-03-10T18:29:33.301Z,98970.78
2019-03-10T18:32:03.454Z,98976.23
2019-03-10T18:34:33.561Z,98971.69
2019-03-10T18:37:03.666Z,98968.25
2019-03-10T18:39:33.779Z,98971.27
2019-03-10T18:42:03.900Z,98979.14
2019-03-10T18:44:34.073Z,98979.61
2019-03-10T18:47:04.232Z,98970.84
2019-03-10T18:49:34.484Z,98973.06
2019-03-10T18:52:04.645Z,98972.77
2019-03-10T18:54:34.919Z,98979.37
2019-03-10T18:57:05.187Z,98976.55
2019-03-10T18:59:35.360Z,98979.28
2019-03-10T19:02:05.508Z,98976.17
2019-03-10T19:04:35.619Z,98983.05
2019-03-10T19:07:05.743Z,98984.78
2019-03-10T19:09:35.967Z,98982.25
2019-03-10T19:12:06.106Z,98997.28
2019-03-10T19:17:37.885Z,99017.68
2019-03-10T19:20:09.057Z,99024.08
2019-03-10T19:22:39.286Z,99013.48
2019-03-10T19:25:10.475Z,99019.41
2019-03-10T19:33:47.738Z,99017.96
2019-03-10T19:36:32.100Z,99024.34
2019-03-10T19:44:30.540Z,99036.56
2019-03-10T19:50:04.219Z,99037.97
2019-03-10T19:53:15.089Z,99036.05
2019-03-10T19:58:50.062Z,99033.61
2019-03-10T20:01:41.098Z,99033.52
2019-03-10T20:04:32.935Z,99038.41
2019-03-10T20:07:17.583Z,99042.81
2019-03-10T20:15:58.813Z,99043.92
2019-03-10T20:18:51.878Z,99037.27
2019-03-10T20:24:27.431Z,99052.61
2019-03-10T20:26:57.578Z,99053.41
2019-03-10T20:29:27.995Z,99056.19
2019-03-10T20:31:58.117Z,99060.40
2019-03-10T20:34:28.375Z,99059.93
2019-03-10T20:36:58.624Z,99071.47
2019-03-10T20:39:42.576Z,99065.19
2019-03-10T20:42:12.816Z,99069.47
2019-03-10T20:44:45.418Z,99069.86
2019-03-10T20:47:15.818Z,99065.37
2019-03-10T20:50:04.937Z,99065.52
2019-03-10T20:52:35.024Z,99076.06
2019-03-10T20:55:05.627Z,99075.21
2019-03-10T21:06:55.059Z,99089.27
2019-03-10T21:09:52.629Z,99091.91
2019-03-10T21:12:50.605Z,99086.60
2019-03-10T21:15:26.084Z,99099.71
2019-03-10T21:27:33.920Z,99003.37
2019-03-10T21:30:08.462Z,99105.38
2019-03-10T21:32:38.805Z,99107.93
2019-03-10T21:35:28.296Z,99107.31
2019-03-10T21:38:13.147Z,99112.46
2019-03-10T21:43:54.542Z,99106.78
2019-03-10T21:46:37.333Z,99106.86
2019-03-10T21:49:34.073Z,99101.80
2019-03-10T21:55:15.157Z,99104.22
2019-03-10T22:00:37.866Z,99101.41
2019-03-10T22:03:29.661Z,99109.25
2019-03-10T22:09:15.739Z,99114.22
2019-03-10T22:12:10.229Z,99115.70
2019-03-10T22:17:32.079Z,99116.66
2019-03-10T22:20:28.601Z,99121.59
2019-03-10T22:23:19.715Z,99123.07
2019-03-10T22:28:37.866Z,99126.95
2019-03-10T22:31:08.724Z,99132.53
2019-03-10T22:36:57.922Z,99132.69
2019-03-10T22:48:31.471Z,99155.50
2019-03-10T22:51:02.442Z,99153.33
2019-03-10T22:53:32.974Z,99157.67
2019-03-10T22:56:29.935Z,99153.72
2019-03-10T23:02:07.466Z,99153.48
2019-03-10T23:05:02.822Z,99156.28
2019-03-10T23:10:35.861Z,99162.33
2019-03-10T23:21:54.706Z,99175.67
2019-03-10T23:30:41.301Z,99180.88
2019-03-10T23:35:56.272Z,99191.81
2019-03-10T23:41:38.266Z,99198.63
2019-03-10T23:47:56.666Z,99210.30
2019-03-10T23:53:29.857Z,99207.03
2019-03-10T23:59:02.697Z,99225.40
